Terminal Aerodrome Forecast
Issued by NWS

Home | Current Version | Previous Version | Text Only | Print | Product List | Glossary On
Versions: 1 2 3 4 5 6 7 8 9 10 11 12 13 14 15 16 17 18 19 20
000
FTUS41 KAKQ 161131
TAFPHF
TAF
KPHF 161131Z 1612/1712 VRB03KT P6SM -RA OVC050
     FM161400 07004KT P6SM OVC035
     FM170200 VRB03KT P6SM BKN030=

USA.gov is the U.S. government's official web portal to all federal, state and local government web resources and services.